Chachapoyas, Peru
Current Conditions -  °F | °C
As of 6:00 PM on Saturday 22 Nov 2014 (Local Time) from SPJR Reporting Station
Clear Clear  
Wind Chill: 63°   Ceiling: Unl
Heat Index: 63°   Visibility: 6mi
Dew Point: 46°   Wind: 6mph
Humidity: 55%   Direction: NA
Pressure: 30.27"   Gusts: NA
Location:  6.23°S, 77.87°W
Report Text: SPJR 222300Z VRB05KT CAVOK 17/08 Q1025 RMK BIRD HAZARD RWY 16/34 PP000
Loading
Personal Weather Stations






























Interactive Weather Map New forecast layout! Learn more

10-Day Weather Forecast

Advertisements
Track Severe Weather on mobile